createdAt,value
2017-08-20T00:00:34.966Z,98.20
2017-08-20T00:03:04.225Z,98.35
2017-08-20T00:05:33.664Z,98.45
2017-08-20T00:08:03.119Z,98.60
2017-08-20T00:10:32.380Z,98.56
2017-08-20T00:13:01.817Z,98.56
2017-08-20T00:15:31.254Z,98.53
2017-08-20T00:18:00.684Z,98.55
2017-08-20T00:20:30.162Z,98.65
2017-08-20T00:22:59.620Z,98.66
2017-08-20T00:25:29.077Z,98.64
2017-08-20T00:27:58.520Z,98.64
2017-08-20T00:30:27.985Z,98.67
2017-08-20T00:32:57.461Z,98.69
2017-08-20T00:35:26.908Z,98.80
2017-08-20T00:37:56.367Z,98.88
2017-08-20T00:40:25.814Z,98.78
2017-08-20T00:42:55.267Z,98.64
2017-08-20T00:45:24.709Z,98.26
2017-08-20T00:47:54.153Z,98.12
2017-08-20T00:50:23.614Z,98.08
2017-08-20T00:52:53.061Z,98.11
2017-08-20T00:55:22.535Z,98.22
2017-08-20T00:57:51.969Z,98.24
2017-08-20T01:00:21.508Z,98.33
2017-08-20T01:02:50.764Z,98.46
2017-08-20T01:05:20.268Z,98.47
2017-08-20T01:07:49.716Z,98.59
2017-08-20T01:10:19.199Z,98.64
2017-08-20T01:12:48.645Z,98.08
2017-08-20T01:15:18.164Z,98.01
2017-08-20T01:17:47.718Z,97.79
2017-08-20T01:20:17.258Z,97.70
2017-08-20T01:22:46.715Z,97.48
2017-08-20T01:25:16.215Z,97.41
2017-08-20T01:27:45.661Z,97.44
2017-08-20T01:30:15.194Z,97.51
2017-08-20T01:32:44.673Z,97.66
2017-08-20T01:35:14.177Z,97.85
2017-08-20T01:37:43.645Z,97.90
2017-08-20T01:40:13.140Z,97.94
2017-08-20T01:42:42.579Z,98.03
2017-08-20T01:45:12.064Z,98.13
2017-08-20T01:47:41.516Z,98.22
2017-08-20T01:50:11.007Z,98.29
2017-08-20T01:52:40.475Z,98.41
2017-08-20T01:55:09.973Z,98.47
2017-08-20T01:57:39.408Z,98.54
2017-08-20T02:00:08.900Z,98.58
2017-08-20T02:02:38.180Z,98.60
2017-08-20T02:05:07.676Z,98.66
2017-08-20T02:07:37.123Z,98.68
2017-08-20T02:10:06.621Z,98.76
2017-08-20T02:12:35.908Z,98.84
2017-08-20T02:15:05.393Z,98.92
2017-08-20T02:17:34.844Z,99.01
2017-08-20T02:20:04.353Z,99.03
2017-08-20T02:22:33.817Z,99.12
2017-08-20T02:25:03.357Z,99.10
2017-08-20T02:27:32.792Z,99.15
2017-08-20T02:30:02.299Z,99.10
2017-08-20T02:32:31.752Z,99.16
2017-08-20T02:35:01.228Z,99.18
2017-08-20T02:37:30.685Z,99.28
2017-08-20T02:40:00.140Z,99.44
2017-08-20T02:42:29.599Z,99.64
2017-08-20T02:44:59.052Z,99.77
2017-08-20T02:47:28.508Z,99.92
2017-08-20T02:49:57.956Z,99.97
2017-08-20T02:52:27.421Z,100.00
2017-08-20T02:54:56.887Z,100.00
2017-08-20T02:57:26.344Z,100.00
2017-08-20T02:59:56.104Z,100.00
2017-08-20T03:02:25.705Z,100.00
2017-08-20T03:04:55.153Z,100.00
2017-08-20T03:07:24.620Z,100.00
2017-08-20T03:09:54.081Z,100.00
2017-08-20T03:12:23.572Z,100.00
2017-08-20T03:14:53.321Z,100.00
2017-08-20T03:17:23.081Z,100.00
2017-08-20T03:19:52.532Z,100.00
2017-08-20T03:22:21.997Z,100.00
2017-08-20T03:24:51.560Z,100.00
2017-08-20T03:27:21.026Z,100.00
2017-08-20T03:29:50.788Z,100.00
2017-08-20T03:32:20.536Z,100.00
2017-08-20T03:34:50.288Z,100.00
2017-08-20T03:37:19.802Z,100.00
2017-08-20T03:39:49.545Z,100.00
2017-08-20T03:42:19.296Z,100.00
2017-08-20T03:44:49.068Z,100.00
2017-08-20T03:47:18.555Z,100.00
2017-08-20T03:49:48.345Z,100.00
2017-08-20T03:52:18.110Z,100.00
2017-08-20T03:54:47.860Z,100.00
2017-08-20T03:57:17.628Z,100.00
2017-08-20T03:59:47.381Z,100.00
2017-08-20T04:02:17.145Z,100.00
2017-08-20T04:04:46.897Z,100.00
2017-08-20T04:07:16.647Z,100.00
2017-08-20T04:09:46.122Z,100.00
2017-08-20T04:12:15.891Z,100.00
2017-08-20T04:14:45.632Z,100.00
2017-08-20T04:17:15.569Z,100.00
2017-08-20T04:19:45.320Z,100.00
2017-08-20T04:22:15.068Z,100.00
2017-08-20T04:24:44.544Z,100.00
2017-08-20T04:27:14.016Z,100.00
2017-08-20T04:29:43.473Z,100.00
2017-08-20T04:32:13.209Z,100.00
2017-08-20T04:34:42.683Z,100.00
2017-08-20T04:37:12.121Z,100.00
2017-08-20T04:39:41.579Z,100.00
2017-08-20T04:42:11.059Z,100.00
2017-08-20T04:44:40.547Z,100.00
2017-08-20T04:47:10.012Z,100.00
2017-08-20T04:49:39.476Z,100.00
2017-08-20T04:52:08.935Z,100.00
2017-08-20T04:54:39.237Z,100.00
2017-08-20T04:57:08.789Z,98.96
2017-08-20T04:59:38.236Z,98.11
2017-08-20T05:02:07.694Z,96.72
2017-08-20T05:04:37.173Z,96.24
2017-08-20T05:07:06.644Z,95.60
2017-08-20T05:09:36.146Z,94.98
2017-08-20T05:12:05.596Z,94.51
2017-08-20T05:14:35.050Z,94.41
2017-08-20T05:17:04.504Z,94.35
2017-08-20T05:19:33.958Z,93.90
2017-08-20T05:22:03.425Z,93.23
2017-08-20T05:24:32.888Z,92.56
2017-08-20T05:27:02.335Z,91.06
2017-08-20T05:29:32.052Z,90.05
2017-08-20T05:32:01.501Z,89.02
2017-08-20T05:34:30.953Z,88.80
2017-08-20T05:37:00.429Z,87.26
2017-08-20T05:39:29.871Z,87.14
2017-08-20T05:41:59.319Z,86.76
2017-08-20T05:44:28.777Z,86.96
2017-08-20T05:46:58.722Z,87.06
2017-08-20T05:49:28.170Z,86.23
2017-08-20T05:51:57.625Z,85.74
2017-08-20T05:54:27.084Z,85.42
2017-08-20T05:56:56.549Z,85.16
2017-08-20T05:59:25.997Z,84.98
2017-08-20T06:01:55.452Z,84.51
2017-08-20T06:04:24.905Z,84.16
2017-08-20T06:06:54.360Z,84.33
2017-08-20T06:09:23.639Z,84.16
2017-08-20T06:11:53.113Z,83.84
2017-08-20T06:14:22.745Z,83.87
2017-08-20T06:16:52.200Z,84.82
2017-08-20T06:19:21.684Z,84.89
2017-08-20T06:21:51.123Z,83.67
2017-08-20T06:24:20.573Z,83.60
2017-08-20T06:26:50.037Z,84.09
2017-08-20T06:29:19.508Z,83.85
2017-08-20T06:31:48.990Z,84.13
2017-08-20T06:34:18.446Z,83.83
2017-08-20T06:36:47.904Z,84.94
2017-08-20T06:39:17.362Z,84.27
2017-08-20T06:41:46.835Z,83.37
2017-08-20T06:44:16.263Z,83.50
2017-08-20T06:46:45.735Z,81.63
2017-08-20T06:49:15.193Z,80.15
2017-08-20T06:51:44.653Z,80.66
2017-08-20T06:54:14.097Z,80.10
2017-08-20T06:56:43.556Z,78.40
2017-08-20T06:59:13.001Z,79.12
2017-08-20T07:01:42.472Z,78.69
2017-08-20T07:04:11.926Z,78.48
2017-08-20T07:06:41.373Z,78.45
2017-08-20T07:09:10.874Z,78.09
2017-08-20T07:11:40.318Z,76.93
2017-08-20T07:14:09.756Z,75.52
2017-08-20T07:16:40.187Z,74.73
2017-08-20T07:19:09.630Z,76.24
2017-08-20T07:21:40.658Z,76.17
2017-08-20T07:24:10.095Z,73.86
2017-08-20T07:26:39.559Z,74.02
2017-08-20T07:29:09.008Z,74.90
2017-08-20T07:31:38.465Z,75.30
2017-08-20T07:34:07.905Z,74.24
2017-08-20T07:36:37.357Z,72.19
2017-08-20T07:39:06.789Z,72.28
2017-08-20T07:41:36.241Z,72.25
2017-08-20T07:44:05.708Z,70.31
2017-08-20T07:46:35.152Z,72.46
2017-08-20T07:49:04.610Z,71.28
2017-08-20T07:51:34.084Z,72.70
2017-08-20T07:54:03.610Z,71.86
2017-08-20T07:56:33.056Z,72.17
2017-08-20T07:59:02.525Z,72.86
2017-08-20T08:01:31.997Z,74.16
2017-08-20T08:04:01.429Z,71.88
2017-08-20T08:06:30.872Z,71.96
2017-08-20T08:09:00.338Z,73.29
2017-08-20T08:11:29.789Z,71.61
2017-08-20T08:13:59.253Z,73.68
2017-08-20T08:16:28.692Z,73.36
2017-08-20T08:18:58.136Z,72.82
2017-08-20T08:21:27.584Z,74.17
2017-08-20T08:23:57.038Z,74.23
2017-08-20T08:26:26.504Z,73.43
2017-08-20T08:28:55.974Z,74.82
2017-08-20T08:31:25.432Z,72.48
2017-08-20T08:33:54.894Z,73.42
2017-08-20T08:36:24.337Z,73.96
2017-08-20T08:38:53.822Z,75.15
2017-08-20T08:41:23.261Z,74.32
2017-08-20T08:43:52.710Z,73.89
2017-08-20T08:46:22.163Z,73.72
2017-08-20T08:48:51.612Z,70.00
2017-08-20T08:51:21.054Z,72.63
2017-08-20T08:53:50.498Z,68.91
2017-08-20T08:56:19.938Z,69.66
2017-08-20T08:58:49.390Z,70.64
2017-08-20T09:01:18.824Z,68.82
2017-08-20T09:03:48.256Z,69.03
2017-08-20T09:06:17.705Z,68.73
2017-08-20T09:08:47.138Z,66.85
2017-08-20T09:11:16.572Z,68.64
2017-08-20T09:13:45.887Z,67.14
2017-08-20T09:16:15.321Z,66.47
2017-08-20T09:18:44.768Z,66.08
2017-08-20T09:21:14.244Z,66.66
2017-08-20T09:23:43.328Z,66.67
2017-08-20T09:26:12.781Z,64.64
2017-08-20T09:28:42.233Z,64.36
2017-08-20T09:31:11.664Z,63.02
2017-08-20T09:33:41.115Z,63.10
2017-08-20T09:36:10.573Z,61.75
2017-08-20T09:38:40.036Z,62.79
2017-08-20T09:41:09.479Z,63.16
2017-08-20T09:43:38.920Z,60.38
2017-08-20T09:46:08.368Z,61.56
2017-08-20T09:48:37.944Z,61.27
2017-08-20T09:51:07.363Z,62.29
2017-08-20T09:53:36.817Z,61.65
2017-08-20T09:56:06.262Z,62.31
2017-08-20T09:58:35.764Z,61.37
2017-08-20T10:01:05.211Z,61.64
2017-08-20T10:03:34.653Z,57.88
2017-08-20T10:06:04.106Z,58.90
2017-08-20T10:08:33.576Z,59.78
2017-08-20T10:11:03.012Z,61.80
2017-08-20T10:13:32.477Z,62.81
2017-08-20T10:16:01.922Z,61.22
2017-08-20T10:18:31.386Z,58.87
2017-08-20T10:21:00.849Z,59.84
2017-08-20T10:23:30.336Z,60.30
2017-08-20T10:25:59.793Z,60.58
2017-08-20T10:28:29.253Z,60.71
2017-08-20T10:30:58.701Z,59.13
2017-08-20T10:33:28.168Z,58.07
2017-08-20T10:35:57.617Z,57.23
2017-08-20T10:38:27.056Z,54.04
2017-08-20T10:40:56.490Z,54.70
2017-08-20T10:43:25.931Z,53.76
2017-08-20T10:45:55.375Z,52.22
2017-08-20T10:48:24.826Z,50.96
2017-08-20T10:50:54.264Z,50.39
2017-08-20T10:53:23.704Z,51.24
2017-08-20T10:55:53.183Z,51.62
2017-08-20T10:58:22.652Z,50.92
2017-08-20T11:00:52.098Z,49.14
2017-08-20T11:03:21.549Z,50.17
2017-08-20T11:05:50.988Z,50.71
2017-08-20T11:08:20.429Z,50.11
2017-08-20T11:10:49.860Z,53.30
2017-08-20T11:13:19.315Z,48.84
2017-08-20T11:15:48.748Z,51.48
2017-08-20T11:18:18.176Z,49.76
2017-08-20T11:20:47.613Z,48.23
2017-08-20T11:23:17.065Z,48.91
2017-08-20T11:25:46.500Z,48.62
2017-08-20T11:28:15.959Z,50.40
2017-08-20T11:30:45.404Z,49.94
2017-08-20T11:33:14.845Z,50.41
2017-08-20T11:35:44.313Z,51.46
2017-08-20T11:38:13.739Z,51.80
2017-08-20T11:40:43.184Z,52.64
2017-08-20T11:43:12.652Z,53.06
2017-08-20T11:45:42.129Z,54.32
2017-08-20T11:48:11.557Z,54.63
2017-08-20T11:50:41.006Z,54.21
2017-08-20T11:53:10.448Z,53.72
2017-08-20T11:55:39.901Z,54.20
2017-08-20T11:58:09.341Z,51.56
2017-08-20T12:00:38.817Z,50.82
2017-08-20T12:03:08.234Z,53.12
2017-08-20T12:05:37.690Z,53.68
2017-08-20T12:08:07.141Z,55.78
2017-08-20T12:10:36.582Z,56.75
2017-08-20T12:13:06.035Z,56.59
2017-08-20T12:15:35.465Z,55.81
2017-08-20T12:18:04.909Z,57.45
2017-08-20T12:20:34.348Z,57.78
2017-08-20T12:23:03.614Z,56.88
2017-08-20T12:25:33.052Z,58.06
2017-08-20T12:28:02.488Z,58.61
2017-08-20T12:30:31.962Z,56.48
2017-08-20T12:33:01.399Z,56.27
2017-08-20T12:35:30.844Z,57.67
2017-08-20T12:38:00.297Z,57.69
2017-08-20T12:40:29.745Z,57.18
2017-08-20T12:42:59.200Z,55.85
2017-08-20T12:45:28.648Z,56.49
2017-08-20T12:47:58.096Z,56.42
2017-08-20T12:50:27.536Z,55.89
2017-08-20T12:52:57.009Z,56.32
2017-08-20T12:55:26.440Z,56.52
2017-08-20T12:57:55.885Z,56.44
2017-08-20T13:00:25.322Z,57.15
2017-08-20T13:02:55.641Z,57.77
2017-08-20T13:05:25.077Z,56.93
2017-08-20T13:07:54.517Z,56.84
2017-08-20T13:10:24.031Z,55.52
2017-08-20T13:12:53.494Z,54.89
2017-08-20T13:15:22.961Z,56.48
2017-08-20T13:17:52.399Z,56.07
2017-08-20T13:20:21.884Z,56.24
2017-08-20T13:22:51.357Z,57.12
2017-08-20T13:25:20.847Z,56.61
2017-08-20T13:27:50.284Z,56.78
2017-08-20T13:30:19.760Z,56.24
2017-08-20T13:32:49.215Z,57.54
2017-08-20T13:35:18.744Z,56.43
2017-08-20T13:37:48.170Z,54.97
2017-08-20T13:40:17.677Z,50.50
2017-08-20T13:42:47.120Z,47.20
2017-08-20T13:45:16.730Z,45.22
2017-08-20T13:47:46.223Z,42.13
2017-08-20T13:50:15.917Z,40.02
2017-08-20T13:52:45.342Z,39.82
2017-08-20T13:55:14.843Z,38.87
2017-08-20T13:57:44.273Z,38.86
2017-08-20T14:00:13.781Z,36.41
2017-08-20T14:02:43.221Z,37.42
2017-08-20T14:05:12.695Z,37.59
2017-08-20T14:07:42.130Z,37.79
2017-08-20T14:10:11.605Z,36.86
2017-08-20T14:12:41.070Z,36.88
2017-08-20T14:15:10.590Z,37.09
2017-08-20T14:17:40.057Z,35.76
2017-08-20T14:20:09.537Z,35.46
2017-08-20T14:22:38.957Z,33.73
2017-08-20T14:25:08.426Z,33.71
2017-08-20T14:27:37.910Z,32.86
2017-08-20T14:30:07.389Z,31.90
2017-08-20T14:32:36.837Z,32.93
2017-08-20T14:35:06.363Z,33.54
2017-08-20T14:37:35.611Z,29.76
2017-08-20T14:40:05.124Z,32.57
2017-08-20T14:42:34.586Z,33.38
2017-08-20T14:45:04.061Z,32.58
2017-08-20T14:47:33.503Z,32.80
2017-08-20T14:50:03.002Z,31.82
2017-08-20T14:52:32.458Z,31.48
2017-08-20T14:55:01.973Z,31.16
2017-08-20T14:57:31.403Z,30.02
2017-08-20T15:00:00.858Z,29.82
2017-08-20T15:02:30.145Z,29.37
2017-08-20T15:04:59.634Z,28.62
2017-08-20T15:07:29.072Z,27.58
2017-08-20T15:09:58.517Z,27.39
2017-08-20T15:12:27.955Z,28.65
2017-08-20T15:14:57.397Z,28.88
2017-08-20T15:17:26.864Z,26.87
2017-08-20T15:19:56.334Z,25.77
2017-08-20T15:22:25.810Z,23.45
2017-08-20T15:24:55.275Z,24.78
2017-08-20T15:27:24.737Z,25.35
2017-08-20T15:29:54.165Z,25.60
2017-08-20T15:32:23.851Z,25.75
2017-08-20T15:34:53.295Z,25.72
2017-08-20T15:37:22.753Z,25.96
2017-08-20T15:39:52.199Z,25.32
2017-08-20T15:42:21.647Z,26.40
2017-08-20T15:44:51.083Z,26.40
2017-08-20T15:47:20.534Z,26.30
2017-08-20T15:49:50.009Z,25.07
2017-08-20T15:52:19.452Z,26.06
2017-08-20T15:54:48.924Z,27.15
2017-08-20T15:57:18.386Z,27.97
2017-08-20T15:59:47.841Z,28.79
2017-08-20T16:02:17.285Z,28.47
2017-08-20T16:04:46.774Z,28.22
2017-08-20T16:07:16.291Z,29.39
2017-08-20T16:09:45.749Z,29.65
2017-08-20T16:12:15.213Z,28.59
2017-08-20T16:14:44.648Z,30.57
2017-08-20T16:17:14.092Z,29.78
2017-08-20T16:19:43.542Z,30.05
2017-08-20T16:22:12.989Z,29.99
2017-08-20T16:24:42.446Z,31.15
2017-08-20T16:27:11.895Z,30.56
2017-08-20T16:29:41.348Z,31.91
2017-08-20T16:32:10.625Z,31.70
2017-08-20T16:34:40.070Z,31.12
2017-08-20T16:37:09.526Z,31.80
2017-08-20T16:39:38.960Z,31.27
2017-08-20T16:42:08.420Z,32.06
2017-08-20T16:44:37.867Z,32.00
2017-08-20T16:47:07.297Z,30.98
2017-08-20T16:49:36.746Z,31.66
2017-08-20T16:52:06.209Z,32.00
2017-08-20T16:54:35.668Z,31.98
2017-08-20T16:57:05.113Z,33.09
2017-08-20T16:59:34.564Z,33.61
2017-08-20T17:02:04.011Z,33.78
2017-08-20T17:04:33.472Z,34.87
2017-08-20T17:07:02.916Z,35.88
2017-08-20T17:09:32.369Z,35.68
2017-08-20T17:12:01.823Z,36.13
2017-08-20T17:14:31.264Z,36.77
2017-08-20T17:17:01.161Z,36.80
2017-08-20T17:19:30.607Z,37.77
2017-08-20T17:22:00.112Z,38.06
2017-08-20T17:24:29.784Z,39.10
2017-08-20T17:26:59.234Z,38.92
2017-08-20T17:29:28.674Z,40.67
2017-08-20T17:31:58.118Z,41.02
2017-08-20T17:34:27.553Z,42.79
2017-08-20T17:36:56.991Z,45.27
2017-08-20T17:39:26.448Z,45.87
2017-08-20T17:41:55.897Z,46.93
2017-08-20T17:44:25.354Z,47.89
2017-08-20T17:46:54.798Z,48.56
2017-08-20T17:49:24.247Z,49.42
2017-08-20T17:51:53.681Z,50.34
2017-08-20T17:54:23.127Z,51.12
2017-08-20T17:56:52.580Z,54.14
2017-08-20T17:59:21.849Z,56.23
2017-08-20T18:01:51.417Z,58.23
2017-08-20T18:04:20.733Z,58.87
2017-08-20T18:06:50.185Z,59.57
2017-08-20T18:09:19.617Z,60.87
2017-08-20T18:11:49.052Z,61.83
2017-08-20T18:14:18.513Z,62.64
2017-08-20T18:16:47.954Z,63.63
2017-08-20T18:19:17.418Z,63.72
2017-08-20T18:21:46.858Z,64.14
2017-08-20T18:24:16.301Z,65.04
2017-08-20T18:26:45.740Z,66.70
2017-08-20T18:29:15.197Z,67.16
2017-08-20T18:31:44.642Z,68.23
2017-08-20T18:34:14.091Z,69.57
2017-08-20T18:36:43.530Z,71.58
2017-08-20T18:39:12.982Z,72.35
2017-08-20T18:41:42.433Z,73.37
2017-08-20T18:44:11.673Z,74.22
2017-08-20T18:46:41.129Z,75.90
2017-08-20T18:49:10.583Z,76.21
2017-08-20T18:51:40.021Z,76.68
2017-08-20T18:54:09.497Z,77.43
2017-08-20T18:56:38.935Z,78.21
2017-08-20T18:59:08.445Z,78.42
2017-08-20T19:01:37.889Z,78.20
2017-08-20T19:04:07.340Z,78.63
2017-08-20T19:06:36.797Z,79.19
2017-08-20T19:09:06.257Z,80.20
2017-08-20T19:11:35.687Z,81.10
2017-08-20T19:14:05.432Z,81.16
2017-08-20T19:16:35.154Z,81.85
2017-08-20T19:19:04.903Z,83.45
2017-08-20T19:21:34.678Z,82.63
2017-08-20T19:24:04.422Z,83.96
2017-08-20T19:26:34.170Z,84.22
2017-08-20T19:29:03.909Z,83.66
2017-08-20T19:31:33.645Z,84.15
2017-08-20T19:34:03.380Z,84.25
2017-08-20T19:36:33.132Z,85.31
2017-08-20T19:39:02.861Z,84.14
2017-08-20T19:41:32.588Z,84.25
2017-08-20T19:44:02.337Z,85.22
2017-08-20T19:46:32.103Z,84.10
2017-08-20T19:49:01.821Z,84.33
2017-08-20T19:51:31.568Z,84.65
2017-08-20T19:54:01.303Z,85.12
2017-08-20T19:56:31.037Z,85.61
2017-08-20T19:59:00.771Z,85.93
2017-08-20T20:01:30.517Z,86.53
2017-08-20T20:04:00.260Z,86.76
2017-08-20T20:06:30.036Z,86.95
2017-08-20T20:08:59.871Z,87.12
2017-08-20T20:11:29.577Z,87.12
2017-08-20T20:13:59.294Z,86.84
2017-08-20T20:16:29.042Z,87.19
2017-08-20T20:18:58.778Z,87.32
2017-08-20T20:21:28.509Z,87.36
2017-08-20T20:23:58.251Z,88.07
2017-08-20T20:26:27.992Z,88.45
2017-08-20T20:28:57.739Z,88.59
2017-08-20T20:31:27.472Z,88.93
2017-08-20T20:33:57.206Z,89.19
2017-08-20T20:36:26.958Z,89.23
2017-08-20T20:38:56.777Z,89.74
2017-08-20T20:41:26.509Z,89.45
2017-08-20T20:43:57.081Z,89.96
2017-08-20T20:46:26.818Z,89.98
2017-08-20T20:48:56.556Z,89.91
2017-08-20T20:51:26.277Z,90.15
2017-08-20T20:53:56.009Z,90.17
2017-08-20T20:56:26.673Z,90.25
2017-08-20T20:58:56.433Z,90.26
2017-08-20T21:01:26.144Z,90.01
2017-08-20T21:03:55.879Z,90.46
2017-08-20T21:06:25.605Z,89.68
2017-08-20T21:08:55.355Z,90.24
2017-08-20T21:11:25.080Z,90.37
2017-08-20T21:13:54.804Z,90.04
2017-08-20T21:16:24.547Z,90.15
2017-08-20T21:18:54.264Z,90.15
2017-08-20T21:21:24.008Z,90.51
2017-08-20T21:23:53.744Z,90.64
2017-08-20T21:26:23.484Z,90.84
2017-08-20T21:28:53.229Z,91.04
2017-08-20T21:31:22.948Z,91.36
2017-08-20T21:33:52.693Z,91.45
2017-08-20T21:36:22.422Z,91.68
2017-08-20T21:38:52.144Z,91.98
2017-08-20T21:41:21.893Z,91.98
2017-08-20T21:43:51.625Z,92.10
2017-08-20T21:46:21.369Z,92.22
2017-08-20T21:48:51.137Z,92.23
2017-08-20T21:51:20.854Z,92.50
2017-08-20T21:53:50.586Z,92.68
2017-08-20T21:56:20.316Z,92.72
2017-08-20T21:58:49.872Z,92.79
2017-08-20T22:01:19.596Z,92.91
2017-08-20T22:03:49.322Z,92.92
2017-08-20T22:06:19.050Z,93.26
2017-08-20T22:08:48.793Z,93.02
2017-08-20T22:11:18.533Z,93.22
2017-08-20T22:13:48.262Z,93.31
2017-08-20T22:16:18.011Z,93.66
2017-08-20T22:18:47.756Z,93.78
2017-08-20T22:21:17.505Z,94.03
2017-08-20T22:23:47.243Z,94.18
2017-08-20T22:26:16.981Z,94.34
2017-08-20T22:28:46.713Z,94.52
2017-08-20T22:31:16.438Z,94.52
2017-08-20T22:33:46.182Z,94.40
2017-08-20T22:36:15.938Z,94.34
2017-08-20T22:38:45.668Z,94.49
2017-08-20T22:41:15.392Z,94.63
2017-08-20T22:43:45.116Z,94.88
2017-08-20T22:46:14.833Z,95.06
2017-08-20T22:48:44.642Z,95.21
2017-08-20T22:51:14.384Z,95.53
2017-08-20T22:53:44.108Z,95.35
2017-08-20T22:56:13.849Z,95.28
2017-08-20T22:58:43.577Z,95.30
2017-08-20T23:01:13.301Z,95.25
2017-08-20T23:03:43.050Z,95.31
2017-08-20T23:06:12.791Z,95.19
2017-08-20T23:08:42.537Z,95.28
2017-08-20T23:11:12.281Z,95.40
2017-08-20T23:13:42.006Z,95.47
2017-08-20T23:16:11.756Z,95.54
2017-08-20T23:18:41.475Z,95.68
2017-08-20T23:21:11.208Z,95.87
2017-08-20T23:23:40.940Z,95.92
2017-08-20T23:26:10.679Z,95.96
2017-08-20T23:28:40.418Z,95.90
2017-08-20T23:31:10.145Z,95.76
2017-08-20T23:33:39.936Z,95.55
2017-08-20T23:36:09.669Z,95.28
2017-08-20T23:38:39.454Z,95.08
2017-08-20T23:41:09.240Z,95.14
2017-08-20T23:43:38.979Z,95.27
2017-08-20T23:46:08.738Z,95.33
2017-08-20T23:48:38.446Z,95.33
2017-08-20T23:51:08.177Z,95.25
2017-08-20T23:53:37.897Z,95.20
2017-08-20T23:56:07.621Z,95.38
2017-08-20T23:58:37.352Z,95.33
